Time;durP1;ratioP1;P1;durP2;ratioP2;P2;SDS_P1;SDS_P2;PMS_P1;PMS_P2;Temp;Humidity;BMP_temperature;BMP_pressure;BME280_temperature;BME280_humidity;BME280_pressure;Samples;Min_cycle;Max_cycle;Signal;HPM_P1;HPM_P2
2022/12/29 00:02:02;;;;;;;14.60;6.50;;;;;;;;;;5070919;28;20043;-75
2022/12/29 00:04:28;;;;;;;13.13;5.30;;;;;;;;;;5067439;28;20115;-75
2022/12/29 00:06:54;;;;;;;13.93;6.05;;;;;;;;;;5069485;28;20494;-75
2022/12/29 00:09:21;;;;;;;16.38;6.32;;;;;;;;;;5065290;28;20116;-76
2022/12/29 00:11:47;;;;;;;16.27;5.78;;;;;;;;;;5059367;28;20029;-75
2022/12/29 00:16:58;;;;;;;21.58;9.35;;;;;;;;;;5059322;28;20048;-75
2022/12/29 00:35:46;;;;;;;62.78;21.05;;;;;;;;;;5061872;28;20051;-75
2022/12/29 00:46:26;;;;;;;11.70;4.47;;;;;;;;;;5054869;28;20065;-75
2022/12/29 00:51:36;;;;;;;9.25;2.95;;;;;;;;;;5066626;28;20031;-74
2022/12/29 00:54:02;;;;;;;9.20;3.55;;;;;;;;;;5059125;28;20113;-75
2022/12/29 00:56:28;;;;;;;11.68;4.88;;;;;;;;;;5069569;28;20089;-75
2022/12/29 00:58:54;;;;;;;15.52;8.05;;;;;;;;;;5055876;28;20437;-75
2022/12/29 01:01:20;;;;;;;31.63;18.25;;;;;;;;;;5062073;28;20112;-75
2022/12/29 01:03:46;;;;;;;42.15;22.83;;;;;;;;;;5059231;28;20044;-75
2022/12/29 01:06:13;;;;;;;30.50;18.45;;;;;;;;;;5060153;28;20024;-75
2022/12/29 01:08:39;;;;;;;17.88;8.32;;;;;;;;;;5066350;28;20033;-75
2022/12/29 01:11:06;;;;;;;13.32;4.53;;;;;;;;;;5064344;28;20035;-75
2022/12/29 01:13:32;;;;;;;8.15;3.53;;;;;;;;;;5057305;28;20036;-75
2022/12/29 01:15:59;;;;;;;10.20;4.82;;;;;;;;;;5061976;28;20057;-75
2022/12/29 01:18:25;;;;;;;11.15;4.00;;;;;;;;;;5065187;28;20074;-75
2022/12/29 01:20:51;;;;;;;9.32;4.63;;;;;;;;;;5068583;28;20431;-75
2022/12/29 01:23:17;;;;;;;9.68;3.85;;;;;;;;;;5068456;28;20036;-75
2022/12/29 01:25:43;;;;;;;13.93;4.25;;;;;;;;;;5065239;28;20028;-75
2022/12/29 01:28:09;;;;;;;10.63;3.95;;;;;;;;;;5068793;28;20034;-75
2022/12/29 01:30:35;;;;;;;9.25;3.58;;;;;;;;;;5057679;28;20036;-75
2022/12/29 01:33:01;;;;;;;8.73;3.97;;;;;;;;;;5049065;28;20037;-74
2022/12/29 01:35:28;;;;;;;8.63;4.30;;;;;;;;;;5063734;28;20060;-75
2022/12/29 01:37:54;;;;;;;9.07;3.50;;;;;;;;;;5060819;28;20112;-75
2022/12/29 01:40:20;;;;;;;14.00;4.13;;;;;;;;;;5064110;28;20036;-75
2022/12/29 01:42:46;;;;;;;9.38;4.45;;;;;;;;;;5069351;28;20040;-75
2022/12/29 01:45:16;;;;;;;8.75;4.38;;;;;;;;;;5060906;28;20051;-75
2022/12/29 01:47:44;;;;;;;8.38;4.30;;;;;;;;;;5061990;28;20075;-75
2022/12/29 01:50:23;;;;;;;10.38;4.70;;;;;;;;;;5049087;28;20056;-75
2022/12/29 01:52:58;;;;;;;7.60;3.95;;;;;;;;;;5067006;28;20474;-75
2022/12/29 01:55:26;;;;;;;8.18;4.00;;;;;;;;;;5062710;28;20036;-75
2022/12/29 01:57:52;;;;;;;7.82;4.18;;;;;;;;;;5067232;28;20033;-75
2022/12/29 02:00:19;;;;;;;10.05;4.43;;;;;;;;;;5064064;28;20465;-75
2022/12/29 02:02:47;;;;;;;7.63;3.70;;;;;;;;;;5052575;28;20043;-75
2022/12/29 02:05:36;;;;;;;8.82;3.78;;;;;;;;;;5057791;28;20456;-75
2022/12/29 02:08:02;;;;;;;6.22;2.83;;;;;;;;;;5022944;28;20058;-75
2022/12/29 02:10:30;;;;;;;6.47;3.20;;;;;;;;;;5058150;28;20026;-75
2022/12/29 02:12:56;;;;;;;8.65;3.53;;;;;;;;;;5068130;28;20843;-75
2022/12/29 02:15:27;;;;;;;8.35;3.88;;;;;;;;;;5065253;28;20384;-75
2022/12/29 02:18:03;;;;;;;7.85;3.72;;;;;;;;;;5063420;28;20095;-75
2022/12/29 02:20:29;;;;;;;10.18;3.97;;;;;;;;;;5059130;28;20061;-75
2022/12/29 02:23:14;;;;;;;6.97;3.92;;;;;;;;;;5057623;28;20064;-75
2022/12/29 02:25:40;;;;;;;8.35;4.05;;;;;;;;;;5067953;28;20032;-75
2022/12/29 02:28:24;;;;;;;8.98;4.60;;;;;;;;;;5061321;28;20029;-75
2022/12/29 02:30:56;;;;;;;10.45;4.60;;;;;;;;;;5052679;28;20108;-75
2022/12/29 02:33:31;;;;;;;9.73;4.80;;;;;;;;;;5061616;28;20036;-75
2022/12/29 02:36:07;;;;;;;11.70;5.22;;;;;;;;;;5063586;28;20444;-75
2022/12/29 02:38:33;;;;;;;8.77;4.53;;;;;;;;;;5056363;28;20055;-75
2022/12/29 02:41:02;;;;;;;10.52;4.65;;;;;;;;;;5069994;28;20033;-75
2022/12/29 02:43:28;;;;;;;9.95;4.60;;;;;;;;;;5070968;28;20530;-75
2022/12/29 02:45:58;;;;;;;11.55;5.25;;;;;;;;;;5061708;28;20144;-75
2022/12/29 02:48:33;;;;;;;7.85;4.20;;;;;;;;;;5071198;28;20078;-75
2022/12/29 02:50:59;;;;;;;8.98;4.93;;;;;;;;;;5062962;28;20061;-75
2022/12/29 02:56:10;;;;;;;9.30;5.07;;;;;;;;;;5063631;28;20075;-75
2022/12/29 02:58:36;;;;;;;9.18;3.95;;;;;;;;;;5061271;28;20033;-75
2022/12/29 03:01:11;;;;;;;8.52;3.85;;;;;;;;;;5067199;28;20048;-75
2022/12/29 03:03:53;;;;;;;9.85;4.45;;;;;;;;;;5067373;28;20067;-75
2022/12/29 03:06:36;;;;;;;8.00;4.00;;;;;;;;;;5065110;28;20029;-75
2022/12/29 03:09:02;;;;;;;10.18;4.07;;;;;;;;;;5055095;28;20044;-75
2022/12/29 03:17:26;;;;;;;10.30;4.47;;;;;;;;;;5065725;28;20039;-75
2022/12/29 03:19:55;;;;;;;10.13;3.97;;;;;;;;;;5069659;28;20036;-75
2022/12/29 03:22:30;;;;;;;10.32;3.13;;;;;;;;;;5070870;28;20040;-75
2022/12/29 03:25:05;;;;;;;8.93;4.03;;;;;;;;;;5070777;28;20024;-75
2022/12/29 03:27:34;;;;;;;8.98;4.38;;;;;;;;;;5070367;28;20029;-75
2022/12/29 03:30:02;;;;;;;10.82;4.13;;;;;;;;;;5073627;28;20036;-75
2022/12/29 03:32:31;;;;;;;8.55;4.63;;;;;;;;;;5069706;28;20059;-75
2022/12/29 03:34:58;;;;;;;9.38;4.35;;;;;;;;;;5075451;28;20032;-75
2022/12/29 03:37:26;;;;;;;11.10;4.95;;;;;;;;;;5057808;28;20581;-75
2022/12/29 03:39:52;;;;;;;10.57;5.72;;;;;;;;;;5055501;28;20037;-75
2022/12/29 03:42:20;;;;;;;10.60;5.97;;;;;;;;;;5055629;28;20062;-75
2022/12/29 03:44:46;;;;;;;9.85;5.47;;;;;;;;;;5069446;28;20041;-75
2022/12/29 03:47:13;;;;;;;10.43;5.03;;;;;;;;;;5070984;28;20028;-75
2022/12/29 03:49:39;;;;;;;12.40;5.03;;;;;;;;;;5069164;28;20534;-75
2022/12/29 03:52:05;;;;;;;9.93;5.82;;;;;;;;;;5067046;28;20028;-75
2022/12/29 03:54:32;;;;;;;12.00;6.10;;;;;;;;;;5067061;28;20025;-75
2022/12/29 03:56:58;;;;;;;12.05;4.93;;;;;;;;;;5070568;28;20102;-75
2022/12/29 03:59:24;;;;;;;13.20;6.30;;;;;;;;;;5069721;28;20071;-74
2022/12/29 04:01:50;;;;;;;10.75;4.95;;;;;;;;;;5063418;28;20024;-75
2022/12/29 04:04:16;;;;;;;10.55;5.13;;;;;;;;;;5058727;28;20041;-75
2022/12/29 04:06:42;;;;;;;10.25;4.85;;;;;;;;;;5070412;28;20055;-75
2022/12/29 04:09:10;;;;;;;9.30;4.93;;;;;;;;;;5052295;28;20393;-75
2022/12/29 04:11:36;;;;;;;10.05;3.22;;;;;;;;;;5061654;28;20148;-75
2022/12/29 04:14:02;;;;;;;5.95;2.08;;;;;;;;;;5060940;28;20673;-75
2022/12/29 04:16:28;;;;;;;5.50;1.25;;;;;;;;;;5056742;28;20041;-75
2022/12/29 04:18:54;;;;;;;5.68;1.58;;;;;;;;;;5073992;28;20621;-75
2022/12/29 04:21:20;;;;;;;5.50;1.77;;;;;;;;;;5069578;28;20044;-75
2022/12/29 04:23:46;;;;;;;7.80;1.88;;;;;;;;;;5070055;28;20032;-75
2022/12/29 04:26:12;;;;;;;6.15;2.85;;;;;;;;;;5069302;28;20044;-74
2022/12/29 04:28:38;;;;;;;7.00;3.00;;;;;;;;;;5051247;28;20027;-75
2022/12/29 04:31:04;;;;;;;6.28;2.70;;;;;;;;;;5062411;28;20033;-75
2022/12/29 04:33:31;;;;;;;6.68;2.42;;;;;;;;;;5064825;28;20020;-75
2022/12/29 04:35:57;;;;;;;6.53;2.70;;;;;;;;;;5055807;28;20076;-75
2022/12/29 04:38:23;;;;;;;9.65;3.90;;;;;;;;;;5063227;28;20028;-75
2022/12/29 04:40:50;;;;;;;7.38;2.92;;;;;;;;;;5064687;28;20043;-75
2022/12/29 04:43:18;;;;;;;8.05;3.13;;;;;;;;;;5053710;28;20032;-75
2022/12/29 04:45:45;;;;;;;7.95;2.25;;;;;;;;;;5066573;28;20025;-75
2022/12/29 04:48:11;;;;;;;7.57;2.70;;;;;;;;;;5065322;28;20069;-75
2022/12/29 04:50:37;;;;;;;8.35;3.80;;;;;;;;;;5066186;28;20064;-75
2022/12/29 04:53:03;;;;;;;14.68;7.68;;;;;;;;;;5061093;28;20075;-75
2022/12/29 04:55:29;;;;;;;10.93;5.50;;;;;;;;;;5060355;28;20044;-75
2022/12/29 04:57:55;;;;;;;15.18;6.78;;;;;;;;;;5060742;28;20036;-75
2022/12/29 05:00:21;;;;;;;9.55;3.53;;;;;;;;;;5065986;28;20044;-75
2022/12/29 05:02:47;;;;;;;12.25;4.38;;;;;;;;;;5060259;28;20028;-75
2022/12/29 05:05:13;;;;;;;8.95;4.15;;;;;;;;;;5050369;28;20033;-75
2022/12/29 05:07:39;;;;;;;15.60;6.07;;;;;;;;;;5066013;28;20096;-75
2022/12/29 05:10:06;;;;;;;19.00;9.00;;;;;;;;;;5067911;28;20036;-75
2022/12/29 05:12:33;;;;;;;14.82;7.20;;;;;;;;;;5068212;28;20029;-75
2022/12/29 05:14:59;;;;;;;10.75;5.30;;;;;;;;;;5050535;28;20407;-75
2022/12/29 05:17:25;;;;;;;13.82;4.65;;;;;;;;;;5068534;28;20039;-75
2022/12/29 05:19:51;;;;;;;11.02;4.53;;;;;;;;;;5057413;28;20037;-75
2022/12/29 05:22:17;;;;;;;11.00;4.82;;;;;;;;;;5067453;28;20028;-75
2022/12/29 05:24:43;;;;;;;7.75;3.47;;;;;;;;;;5063091;28;20037;-75
2022/12/29 05:27:09;;;;;;;9.13;3.50;;;;;;;;;;5060079;28;20361;-75
2022/12/29 05:29:35;;;;;;;7.05;3.30;;;;;;;;;;5057099;28;20029;-75
2022/12/29 05:32:01;;;;;;;11.48;3.72;;;;;;;;;;5056063;28;20363;-75
2022/12/29 05:34:27;;;;;;;8.65;2.63;;;;;;;;;;5055631;28;20051;-75
2022/12/29 05:36:53;;;;;;;10.10;2.75;;;;;;;;;;5066454;28;20219;-75
2022/12/29 05:39:19;;;;;;;7.55;3.47;;;;;;;;;;5063969;28;20663;-75
2022/12/29 05:41:45;;;;;;;13.43;4.20;;;;;;;;;;5064498;28;20043;-75
2022/12/29 05:44:11;;;;;;;9.15;3.60;;;;;;;;;;5068097;28;20043;-75
2022/12/29 05:46:37;;;;;;;5.80;2.40;;;;;;;;;;5058342;28;20020;-75
2022/12/29 05:49:03;;;;;;;10.80;3.42;;;;;;;;;;5057896;28;20037;-75
2022/12/29 05:51:29;;;;;;;9.75;3.05;;;;;;;;;;5058636;28;20048;-75
2022/12/29 05:53:55;;;;;;;9.30;4.28;;;;;;;;;;5048377;28;20120;-75
2022/12/29 05:56:21;;;;;;;10.23;3.15;;;;;;;;;;5057181;28;20025;-75
2022/12/29 05:58:47;;;;;;;10.43;3.97;;;;;;;;;;5053072;28;20418;-75
2022/12/29 06:01:13;;;;;;;10.95;4.38;;;;;;;;;;5061866;28;20025;-75
2022/12/29 06:03:39;;;;;;;11.38;4.30;;;;;;;;;;5061305;28;20048;-75
2022/12/29 06:06:05;;;;;;;8.90;4.80;;;;;;;;;;5060448;28;20107;-75
2022/12/29 06:08:31;;;;;;;10.05;3.05;;;;;;;;;;5065627;28;20025;-75
2022/12/29 06:10:57;;;;;;;7.90;3.28;;;;;;;;;;5060998;28;20029;-75
2022/12/29 06:13:23;;;;;;;7.43;3.55;;;;;;;;;;5068363;28;20043;-75
2022/12/29 06:15:49;;;;;;;6.72;3.13;;;;;;;;;;5057027;28;20102;-75
2022/12/29 06:18:15;;;;;;;9.68;3.08;;;;;;;;;;5061897;28;20063;-75
2022/12/29 06:20:41;;;;;;;6.93;2.53;;;;;;;;;;5060632;28;20041;-75
2022/12/29 06:23:07;;;;;;;6.05;2.35;;;;;;;;;;5066580;28;20032;-75
2022/12/29 06:25:35;;;;;;;8.07;2.72;;;;;;;;;;5058084;28;20037;-75
2022/12/29 06:28:01;;;;;;;9.48;2.53;;;;;;;;;;5066481;28;20028;-75
2022/12/29 06:30:27;;;;;;;7.70;2.92;;;;;;;;;;5061557;28;20043;-75
2022/12/29 06:32:54;;;;;;;7.45;2.83;;;;;;;;;;5060602;28;20040;-75
2022/12/29 06:35:21;;;;;;;6.93;2.45;;;;;;;;;;5058080;28;20029;-75
2022/12/29 06:37:47;;;;;;;7.80;3.20;;;;;;;;;;5061764;28;20103;-75
2022/12/29 06:40:13;;;;;;;7.45;2.63;;;;;;;;;;5065535;28;20132;-75
2022/12/29 06:42:39;;;;;;;11.18;2.83;;;;;;;;;;5065522;28;20036;-75
2022/12/29 06:45:05;;;;;;;6.18;2.78;;;;;;;;;;5062382;28;20479;-75
2022/12/29 06:47:31;;;;;;;6.25;3.10;;;;;;;;;;5063633;28;20032;-75
2022/12/29 06:49:57;;;;;;;10.43;3.53;;;;;;;;;;5064715;28;20056;-75
2022/12/29 06:52:24;;;;;;;9.27;3.10;;;;;;;;;;5062815;28;20060;-75
2022/12/29 06:54:50;;;;;;;8.68;3.88;;;;;;;;;;5062049;28;20585;-75
2022/12/29 06:57:16;;;;;;;9.98;3.90;;;;;;;;;;5057935;28;20629;-75
2022/12/29 06:59:42;;;;;;;29.63;13.95;;;;;;;;;;5066412;28;20127;-75
2022/12/29 07:02:09;;;;;;;18.23;9.05;;;;;;;;;;5059199;28;20099;-75
2022/12/29 07:04:35;;;;;;;11.57;6.60;;;;;;;;;;5057546;28;20029;-75
2022/12/29 07:07:01;;;;;;;7.55;3.97;;;;;;;;;;5064882;28;20422;-75
2022/12/29 07:09:27;;;;;;;10.18;3.40;;;;;;;;;;5058198;28;20035;-75
2022/12/29 07:11:53;;;;;;;8.60;4.07;;;;;;;;;;5057898;28;20356;-75
2022/12/29 07:14:19;;;;;;;5.50;2.47;;;;;;;;;;5061101;28;20063;-75
2022/12/29 07:16:45;;;;;;;7.65;2.42;;;;;;;;;;5062730;28;20028;-75
2022/12/29 07:19:11;;;;;;;10.15;3.50;;;;;;;;;;5064031;28;20036;-75
2022/12/29 07:21:37;;;;;;;9.38;3.15;;;;;;;;;;5068442;28;20028;-75
2022/12/29 07:24:04;;;;;;;5.28;2.53;;;;;;;;;;5066107;28;20357;-75
2022/12/29 07:26:30;;;;;;;6.22;2.60;;;;;;;;;;5057528;28;20559;-75
2022/12/29 07:28:56;;;;;;;10.80;4.68;;;;;;;;;;5069119;28;20136;-75
2022/12/29 07:31:22;;;;;;;7.40;2.97;;;;;;;;;;5065276;28;20060;-75
2022/12/29 07:33:48;;;;;;;6.80;2.42;;;;;;;;;;5060573;28;20047;-75
2022/12/29 07:36:15;;;;;;;8.95;2.33;;;;;;;;;;5065262;28;20050;-75
2022/12/29 07:38:41;;;;;;;11.45;2.08;;;;;;;;;;5063731;28;20031;-75
2022/12/29 07:41:07;;;;;;;4.22;1.30;;;;;;;;;;5063670;28;20671;-75
2022/12/29 07:43:33;;;;;;;4.63;1.13;;;;;;;;;;5062872;28;20038;-75
2022/12/29 07:46:00;;;;;;;2.75;0.50;;;;;;;;;;5066111;28;20056;-75
2022/12/29 07:48:26;;;;;;;3.03;0.77;;;;;;;;;;5067830;28;20017;-75
2022/12/29 07:50:52;;;;;;;4.70;0.73;;;;;;;;;;5059290;28;20132;-75
2022/12/29 07:53:18;;;;;;;4.30;0.63;;;;;;;;;;5069545;28;20032;-75
2022/12/29 07:55:44;;;;;;;5.93;1.15;;;;;;;;;;5066436;28;20033;-75
2022/12/29 07:58:10;;;;;;;8.68;1.15;;;;;;;;;;5063772;28;20032;-75
2022/12/29 08:00:37;;;;;;;6.45;1.60;;;;;;;;;;5062236;28;20041;-75
2022/12/29 08:03:04;;;;;;;3.53;0.77;;;;;;;;;;5062649;28;20025;-75
2022/12/29 08:05:30;;;;;;;3.22;0.65;;;;;;;;;;5059483;28;20033;-75
2022/12/29 08:07:56;;;;;;;4.43;0.57;;;;;;;;;;5063195;28;20503;-75
2022/12/29 08:10:22;;;;;;;3.42;0.80;;;;;;;;;;5066242;28;20043;-75
2022/12/29 08:12:48;;;;;;;3.55;0.60;;;;;;;;;;5068089;28;20025;-75
2022/12/29 08:15:14;;;;;;;3.90;0.70;;;;;;;;;;5062886;28;20048;-75
2022/12/29 08:17:40;;;;;;;4.50;0.60;;;;;;;;;;5061682;28;20033;-74
2022/12/29 08:20:07;;;;;;;3.65;0.50;;;;;;;;;;5071847;28;20195;-74
2022/12/29 08:22:33;;;;;;;2.88;0.55;;;;;;;;;;5065403;28;20040;-75
2022/12/29 08:24:59;;;;;;;2.42;0.30;;;;;;;;;;5068051;28;20032;-75
2022/12/29 08:27:25;;;;;;;2.88;0.40;;;;;;;;;;5063622;28;20028;-75
2022/12/29 08:29:51;;;;;;;3.78;1.15;;;;;;;;;;5068401;28;20032;-75
2022/12/29 08:32:17;;;;;;;11.38;3.22;;;;;;;;;;5062595;28;20055;-75
2022/12/29 08:34:43;;;;;;;3.40;1.25;;;;;;;;;;5067491;28;20064;-75
2022/12/29 08:37:09;;;;;;;3.70;0.65;;;;;;;;;;5065475;28;20136;-75
2022/12/29 08:39:35;;;;;;;3.17;0.30;;;;;;;;;;5066088;28;20143;-75
2022/12/29 08:42:01;;;;;;;4.95;0.98;;;;;;;;;;5066024;28;20914;-75
2022/12/29 08:44:27;;;;;;;6.40;2.00;;;;;;;;;;5058775;28;20119;-75
2022/12/29 08:46:53;;;;;;;5.63;1.85;;;;;;;;;;5057751;28;20024;-75
2022/12/29 08:49:19;;;;;;;4.55;1.63;;;;;;;;;;5059868;28;20037;-75
2022/12/29 08:51:45;;;;;;;5.80;1.00;;;;;;;;;;5053124;28;20092;-75
2022/12/29 08:54:12;;;;;;;7.53;1.83;;;;;;;;;;5064431;28;20209;-75
2022/12/29 08:56:38;;;;;;;6.40;1.50;;;;;;;;;;5060455;28;20082;-75
2022/12/29 08:59:04;;;;;;;3.58;1.20;;;;;;;;;;5064530;28;20065;-75
2022/12/29 09:01:30;;;;;;;1.95;0.57;;;;;;;;;;5069695;28;20403;-75
2022/12/29 09:03:56;;;;;;;4.28;0.60;;;;;;;;;;5065132;28;20045;-76
2022/12/29 09:06:22;;;;;;;2.65;0.50;;;;;;;;;;5068281;28;20032;-75
2022/12/29 09:08:48;;;;;;;3.67;0.70;;;;;;;;;;5068456;28;20028;-76
2022/12/29 09:11:16;;;;;;;3.35;0.50;;;;;;;;;;5064863;28;20150;-75
2022/12/29 09:13:42;;;;;;;3.65;0.60;;;;;;;;;;5062563;28;20032;-75
2022/12/29 09:16:08;;;;;;;2.75;0.50;;;;;;;;;;5059140;28;20484;-75
2022/12/29 09:18:34;;;;;;;4.97;0.52;;;;;;;;;;5063925;28;20071;-75
2022/12/29 09:21:01;;;;;;;4.25;0.75;;;;;;;;;;5065702;28;20119;-75
2022/12/29 09:23:27;;;;;;;3.63;0.70;;;;;;;;;;5042689;28;20128;-76
2022/12/29 09:25:54;;;;;;;2.58;0.60;;;;;;;;;;5056286;28;20039;-75
2022/12/29 09:28:20;;;;;;;4.35;0.60;;;;;;;;;;5057507;28;20040;-76
2022/12/29 09:30:46;;;;;;;2.30;0.50;;;;;;;;;;5061820;28;20835;-75
2022/12/29 09:33:12;;;;;;;2.03;0.60;;;;;;;;;;5063081;28;20036;-75
2022/12/29 09:35:42;;;;;;;5.55;0.70;;;;;;;;;;5054412;28;20431;-75
2022/12/29 09:38:08;;;;;;;3.97;0.80;;;;;;;;;;5063513;28;20124;-76
2022/12/29 09:40:34;;;;;;;4.38;0.47;;;;;;;;;;5060049;28;20032;-76
2022/12/29 09:43:09;;;;;;;2.15;0.50;;;;;;;;;;5062571;28;20646;-75
2022/12/29 09:45:54;;;;;;;4.45;0.88;;;;;;;;;;5066613;28;20107;-75
2022/12/29 09:48:23;;;;;;;2.88;0.77;;;;;;;;;;5065505;28;20039;-75
2022/12/29 09:50:55;;;;;;;5.78;0.73;;;;;;;;;;5053959;28;20032;-75
2022/12/29 09:53:22;;;;;;;5.57;0.75;;;;;;;;;;5053043;28;20071;-75
2022/12/29 09:55:50;;;;;;;4.40;0.80;;;;;;;;;;5054598;28;20029;-75
2022/12/29 09:58:25;;;;;;;4.78;1.00;;;;;;;;;;5053045;28;20028;-75
2022/12/29 10:01:00;;;;;;;5.97;1.40;;;;;;;;;;5064102;28;20036;-75
2022/12/29 10:03:41;;;;;;;4.43;1.67;;;;;;;;;;5062158;28;20032;-75
2022/12/29 10:06:21;;;;;;;9.75;2.45;;;;;;;;;;5057200;28;20033;-75
2022/12/29 10:08:50;;;;;;;4.60;1.75;;;;;;;;;;5064760;28;20056;-75
2022/12/29 10:11:16;;;;;;;2.78;1.13;;;;;;;;;;5061424;28;20536;-75
2022/12/29 10:13:51;;;;;;;4.68;1.15;;;;;;;;;;5054239;28;20033;-75
2022/12/29 10:16:43;;;;;;;5.65;1.92;;;;;;;;;;5059330;28;20060;-75
2022/12/29 10:19:22;;;;;;;5.07;1.90;;;;;;;;;;5037024;28;20432;-75
2022/12/29 10:21:53;;;;;;;9.38;2.80;;;;;;;;;;5060488;28;20024;-75
2022/12/29 10:24:21;;;;;;;5.70;2.10;;;;;;;;;;5061200;28;21026;-75
2022/12/29 10:26:49;;;;;;;8.65;3.10;;;;;;;;;;5062562;28;20075;-76
2022/12/29 10:29:18;;;;;;;12.57;5.22;;;;;;;;;;5064272;28;20036;-76
2022/12/29 10:31:46;;;;;;;9.93;5.82;;;;;;;;;;5056023;28;20040;-75
2022/12/29 10:34:21;;;;;;;8.52;1.02;;;;;;;;;;5058227;28;20052;-75
2022/12/29 10:36:52;;;;;;;3.10;0.63;;;;;;;;;;5061306;28;20024;-75
2022/12/29 10:39:21;;;;;;;2.35;0.50;;;;;;;;;;5062088;28;20037;-75
2022/12/29 10:41:53;;;;;;;4.03;0.70;;;;;;;;;;5061633;28;20055;-75
2022/12/29 10:44:20;;;;;;;2.75;0.40;;;;;;;;;;5063299;28;20119;-75
2022/12/29 10:46:52;;;;;;;1.90;0.30;;;;;;;;;;5065426;28;20020;-75
2022/12/29 10:49:18;;;;;;;2.72;0.45;;;;;;;;;;5063228;28;20138;-75
2022/12/29 10:51:46;;;;;;;6.22;0.80;;;;;;;;;;5069197;28;20522;-76
2022/12/29 10:54:18;;;;;;;2.67;0.47;;;;;;;;;;5068143;28;20144;-76
2022/12/29 10:57:05;;;;;;;2.72;0.20;;;;;;;;;;5071899;28;20111;-75
2022/12/29 10:59:33;;;;;;;1.83;0.60;;;;;;;;;;5065778;28;20547;-75
2022/12/29 11:02:11;;;;;;;2.35;0.65;;;;;;;;;;5069752;28;20133;-76
2022/12/29 11:04:55;;;;;;;3.03;0.70;;;;;;;;;;5066451;28;20383;-75
2022/12/29 11:07:22;;;;;;;1.98;0.30;;;;;;;;;;5067794;28;20087;-76
2022/12/29 11:09:48;;;;;;;7.93;1.40;;;;;;;;;;5063256;28;20043;-75
2022/12/29 11:12:25;;;;;;;3.08;0.80;;;;;;;;;;5063742;28;20754;-75
2022/12/29 11:15:01;;;;;;;2.67;1.10;;;;;;;;;;5067248;28;20048;-76
2022/12/29 11:17:27;;;;;;;3.88;0.88;;;;;;;;;;5067749;28;20028;-76
2022/12/29 11:19:53;;;;;;;5.53;0.90;;;;;;;;;;5064201;28;20089;-76
2022/12/29 11:22:28;;;;;;;5.85;0.80;;;;;;;;;;5069488;28;20029;-76
2022/12/29 11:24:55;;;;;;;2.83;0.88;;;;;;;;;;5044628;28;20033;-76
2022/12/29 11:27:22;;;;;;;6.13;0.73;;;;;;;;;;5066714;28;20024;-76
2022/12/29 11:29:49;;;;;;;4.63;1.10;;;;;;;;;;5064351;28;20099;-76
2022/12/29 11:32:22;;;;;;;8.02;0.80;;;;;;;;;;5063767;28;20025;-76
2022/12/29 11:34:49;;;;;;;5.97;1.00;;;;;;;;;;5067671;28;20060;-76
2022/12/29 11:37:17;;;;;;;6.35;0.77;;;;;;;;;;5068595;28;20348;-75
2022/12/29 11:39:52;;;;;;;7.72;0.73;;;;;;;;;;5062599;28;20699;-76
2022/12/29 11:42:20;;;;;;;2.03;0.70;;;;;;;;;;5063418;28;20055;-75
2022/12/29 11:44:48;;;;;;;3.75;0.70;;;;;;;;;;5066975;28;20032;-76
2022/12/29 11:47:36;;;;;;;6.38;1.77;;;;;;;;;;5062701;28;20834;-76
2022/12/29 11:50:04;;;;;;;4.75;0.93;;;;;;;;;;5064613;28;20692;-76
2022/12/29 11:52:34;;;;;;;3.10;1.20;;;;;;;;;;5065279;28;20036;-76
2022/12/29 11:55:01;;;;;;;3.70;1.80;;;;;;;;;;5067791;28;20033;-76
2022/12/29 11:57:28;;;;;;;4.32;0.85;;;;;;;;;;5069916;28;20483;-75
2022/12/29 11:59:55;;;;;;;5.43;0.95;;;;;;;;;;5065112;28;20107;-75
2022/12/29 12:02:28;;;;;;;5.38;1.33;;;;;;;;;;5059840;28;20031;-76
2022/12/29 12:05:00;;;;;;;5.18;1.05;;;;;;;;;;5072476;28;20032;-75
2022/12/29 12:08:02;;;;;;;2.35;0.82;;;;;;;;;;5067505;28;20029;-76
2022/12/29 12:10:37;;;;;;;2.97;0.80;;;;;;;;;;4986037;28;20045;-75
2022/12/29 12:13:17;;;;;;;2.67;0.68;;;;;;;;;;5055444;28;20048;-76
2022/12/29 12:15:47;;;;;;;3.58;0.90;;;;;;;;;;5065046;28;20084;-75
2022/12/29 12:18:27;;;;;;;3.17;0.77;;;;;;;;;;5065840;28;20095;-76
2022/12/29 12:21:09;;;;;;;4.60;0.70;;;;;;;;;;5066822;28;20127;-75
2022/12/29 12:23:47;;;;;;;4.22;1.20;;;;;;;;;;5072178;28;20348;-75
2022/12/29 12:26:21;;;;;;;4.80;1.20;;;;;;;;;;5061236;28;20032;-75
2022/12/29 12:29:06;;;;;;;5.05;1.02;;;;;;;;;;5066623;28;20037;-76
2022/12/29 12:31:51;;;;;;;5.25;0.70;;;;;;;;;;5062992;28;20108;-76
2022/12/29 12:34:24;;;;;;;3.28;1.08;;;;;;;;;;5067948;28;20382;-76
2022/12/29 12:36:59;;;;;;;3.15;0.88;;;;;;;;;;5066305;28;20546;-76
2022/12/29 12:39:25;;;;;;;4.50;0.90;;;;;;;;;;5062250;28;20036;-75
2022/12/29 12:41:54;;;;;;;5.22;1.10;;;;;;;;;;5067424;28;20036;-75
2022/12/29 12:44:20;;;;;;;4.32;1.10;;;;;;;;;;5065186;28;20040;-76
2022/12/29 12:46:54;;;;;;;4.50;1.00;;;;;;;;;;5061416;28;20039;-75
2022/12/29 12:49:24;;;;;;;5.50;0.80;;;;;;;;;;5063878;28;20029;-76
2022/12/29 12:52:02;;;;;;;6.05;1.00;;;;;;;;;;5059223;28;20031;-76
2022/12/29 12:54:44;;;;;;;5.28;1.38;;;;;;;;;;5064976;28;20055;-76
2022/12/29 12:57:28;;;;;;;4.43;1.58;;;;;;;;;;5067675;28;20116;-75
2022/12/29 12:59:58;;;;;;;6.80;1.05;;;;;;;;;;5062822;28;20074;-75
2022/12/29 13:02:39;;;;;;;5.90;1.25;;;;;;;;;;5063702;28;20695;-76
2022/12/29 13:05:14;;;;;;;5.20;1.30;;;;;;;;;;5065247;28;20052;-76
2022/12/29 13:07:43;;;;;;;3.70;0.95;;;;;;;;;;5051791;28;20091;-75
2022/12/29 13:10:19;;;;;;;3.53;0.90;;;;;;;;;;5061956;28;20646;-76
2022/12/29 13:12:51;;;;;;;8.20;1.23;;;;;;;;;;5064750;28;20029;-76
2022/12/29 13:15:24;;;;;;;5.72;1.10;;;;;;;;;;5056997;28;20057;-76
2022/12/29 13:18:01;;;;;;;6.85;1.67;;;;;;;;;;5068397;28;20085;-75
2022/12/29 13:20:32;;;;;;;9.88;4.03;;;;;;;;;;5064624;28;20182;-76
2022/12/29 13:22:58;;;;;;;12.63;4.63;;;;;;;;;;5060983;28;20035;-75
2022/12/29 13:25:43;;;;;;;7.85;3.38;;;;;;;;;;5061695;28;20025;-75
2022/12/29 13:28:28;;;;;;;7.50;3.35;;;;;;;;;;5057863;28;20118;-75
2022/12/29 13:31:14;;;;;;;6.75;2.25;;;;;;;;;;5060295;28;20653;-73
2022/12/29 13:33:43;;;;;;;6.80;1.33;;;;;;;;;;5051596;28;20068;-74
2022/12/29 13:36:27;;;;;;;4.32;1.00;;;;;;;;;;5060813;28;20066;-76
2022/12/29 13:39:09;;;;;;;7.53;1.42;;;;;;;;;;5058630;28;20024;-76
2022/12/29 13:41:42;;;;;;;2.87;1.10;;;;;;;;;;5060011;28;20036;-76
2022/12/29 13:44:10;;;;;;;8.05;1.50;;;;;;;;;;5056635;28;20064;-76
2022/12/29 13:46:41;;;;;;;12.57;4.05;;;;;;;;;;5061148;28;20111;-76
2022/12/29 13:49:20;;;;;;;8.65;3.05;;;;;;;;;;5056569;28;20048;-76
2022/12/29 13:51:51;;;;;;;3.70;1.20;;;;;;;;;;5064875;28;20063;-76
2022/12/29 13:54:36;;;;;;;6.97;1.60;;;;;;;;;;5062920;28;20796;-76
2022/12/29 13:57:24;;;;;;;8.23;1.20;;;;;;;;;;5063457;28;20028;-76
2022/12/29 13:59:52;;;;;;;4.03;1.00;;;;;;;;;;5066095;28;20071;-76
2022/12/29 14:02:33;;;;;;;9.48;1.85;;;;;;;;;;5057154;28;20032;-76
2022/12/29 14:05:00;;;;;;;6.35;1.25;;;;;;;;;;5062197;28;20044;-76
2022/12/29 14:07:27;;;;;;;4.63;1.00;;;;;;;;;;5063657;28;20027;-75
2022/12/29 14:09:54;;;;;;;4.43;1.30;;;;;;;;;;5064686;28;20036;-76
2022/12/29 14:12:22;;;;;;;6.03;1.20;;;;;;;;;;5059202;28;20032;-75
2022/12/29 14:14:49;;;;;;;7.35;1.42;;;;;;;;;;5055753;28;20130;-75
2022/12/29 14:17:20;;;;;;;5.05;1.20;;;;;;;;;;5065924;28;20509;-76
2022/12/29 14:19:46;;;;;;;3.60;1.20;;;;;;;;;;5056984;28;20036;-76
2022/12/29 14:22:13;;;;;;;6.97;1.60;;;;;;;;;;5064613;28;20052;-75
2022/12/29 14:24:40;;;;;;;6.55;1.00;;;;;;;;;;5063211;28;20388;-75
2022/12/29 14:27:12;;;;;;;4.18;1.13;;;;;;;;;;5058549;28;20037;-76
2022/12/29 14:29:41;;;;;;;3.88;1.10;;;;;;;;;;5063561;28;20028;-76
2022/12/29 14:32:30;;;;;;;8.15;1.35;;;;;;;;;;5068074;28;20109;-76
2022/12/29 14:34:56;;;;;;;6.40;0.90;;;;;;;;;;5069100;28;20033;-76
2022/12/29 14:37:33;;;;;;;4.30;1.05;;;;;;;;;;5061818;28;20039;-76
2022/12/29 14:40:18;;;;;;;6.38;1.15;;;;;;;;;;5066854;28;20612;-76
2022/12/29 14:42:45;;;;;;;11.93;1.15;;;;;;;;;;5063986;28;20108;-76
2022/12/29 14:45:14;;;;;;;5.82;1.30;;;;;;;;;;5065293;28;20572;-76
2022/12/29 14:47:44;;;;;;;5.68;1.10;;;;;;;;;;5063223;28;20443;-75
2022/12/29 14:50:35;;;;;;;5.63;1.75;;;;;;;;;;5062174;28;20035;-75
2022/12/29 14:53:04;;;;;;;6.65;1.55;;;;;;;;;;5067620;28;20037;-75
2022/12/29 14:55:30;;;;;;;11.40;1.80;;;;;;;;;;5059851;28;20032;-75
2022/12/29 14:58:01;;;;;;;4.80;1.17;;;;;;;;;;5064776;28;20043;-76
2022/12/29 15:00:31;;;;;;;9.75;1.95;;;;;;;;;;5070659;28;20040;-75
2022/12/29 15:03:00;;;;;;;7.63;1.75;;;;;;;;;;5063300;28;20034;-76
2022/12/29 15:05:41;;;;;;;8.43;2.88;;;;;;;;;;5062588;28;20032;-76
2022/12/29 15:08:07;;;;;;;11.05;5.38;;;;;;;;;;5062191;28;20074;-76
2022/12/29 15:10:39;;;;;;;11.77;4.75;;;;;;;;;;5058564;28;20527;-75
2022/12/29 15:13:06;;;;;;;8.98;3.85;;;;;;;;;;5067442;28;20041;-76
2022/12/29 15:15:37;;;;;;;11.18;4.05;;;;;;;;;;5066417;28;20053;-76
2022/12/29 15:18:22;;;;;;;6.50;2.30;;;;;;;;;;5068203;28;20833;-76
2022/12/29 15:20:51;;;;;;;7.07;2.03;;;;;;;;;;5061658;28;20491;-76
2022/12/29 15:23:17;;;;;;;10.65;2.63;;;;;;;;;;5067988;28;20119;-76
2022/12/29 15:26:09;;;;;;;5.60;2.20;;;;;;;;;;5065444;28;20054;-76
2022/12/29 15:28:42;;;;;;;7.03;2.97;;;;;;;;;;5057539;28;20037;-76
2022/12/29 15:31:11;;;;;;;11.38;3.72;;;;;;;;;;5060910;28;20166;-76
2022/12/29 15:33:39;;;;;;;7.95;2.30;;;;;;;;;;5060403;28;20032;-76